Time;durP1;ratioP1;P1;durP2;ratioP2;P2;SDS_P1;SDS_P2;PMS_P1;PMS_P2;Temp;Humidity;BMP_temperature;BMP_pressure;BME280_temperature;BME280_humidity;BME280_pressure;Samples;Min_cycle;Max_cycle;Signal;HPM_P1;HPM_P2
2023/08/19 00:00:15;;;;;;;0.88;0.88;;;23.50;76.60;;;;;;5025446;28;20519;-78
2023/08/19 00:02:42;;;;;;;0.70;0.70;;;23.50;76.60;;;;;;5023232;28;20409;-78
2023/08/19 00:05:08;;;;;;;0.60;0.60;;;23.50;76.60;;;;;;5008519;28;20052;-78
2023/08/19 00:07:33;;;;;;;0.80;0.80;;;23.50;76.60;;;;;;5023303;28;20038;-78
2023/08/19 00:10:01;;;;;;;0.93;0.80;;;23.50;76.70;;;;;;5023296;28;20060;-78
2023/08/19 00:12:27;;;;;;;0.60;0.60;;;23.40;76.60;;;;;;5023269;28;20029;-78
2023/08/19 00:14:55;;;;;;;0.60;0.60;;;23.50;76.70;;;;;;5005568;28;20510;-78
2023/08/19 00:17:21;;;;;;;0.57;0.57;;;23.50;76.70;;;;;;5004763;28;20049;-78
2023/08/19 00:19:48;;;;;;;0.60;0.60;;;23.50;76.70;;;;;;5021845;28;20057;-78
2023/08/19 00:22:14;;;;;;;0.50;0.50;;;23.40;76.60;;;;;;5024850;28;20115;-78
2023/08/19 00:24:39;;;;;;;0.50;0.50;;;23.50;76.60;;;;;;5021766;28;20040;-78
2023/08/19 00:27:05;;;;;;;0.70;0.70;;;23.50;76.60;;;;;;5026034;28;20064;-78
2023/08/19 00:29:30;;;;;;;0.60;0.60;;;23.40;76.60;;;;;;5022943;28;20049;-78
2023/08/19 00:31:56;;;;;;;0.80;0.77;;;23.50;76.60;;;;;;5023738;28;20128;-78
2023/08/19 00:34:21;;;;;;;0.55;0.55;;;23.40;76.60;;;;;;5023865;28;20080;-78
2023/08/19 00:36:48;;;;;;;1.05;0.60;;;23.40;76.50;;;;;;5023039;28;20124;-78
2023/08/19 00:39:13;;;;;;;0.60;0.60;;;23.40;76.60;;;;;;5025514;28;20046;-78
2023/08/19 00:41:39;;;;;;;0.60;0.60;;;23.40;76.60;;;;;;5023375;28;20052;-78
2023/08/19 00:44:05;;;;;;;0.60;0.60;;;23.50;76.70;;;;;;5022567;28;20042;-78
2023/08/19 00:46:30;;;;;;;0.70;0.70;;;23.40;76.50;;;;;;5023810;28;20029;-78
2023/08/19 00:48:57;;;;;;;0.65;0.65;;;23.50;76.60;;;;;;5023688;28;20511;-78
2023/08/19 00:51:22;;;;;;;0.80;0.80;;;23.50;76.70;;;;;;5025920;28;20538;-77
2023/08/19 00:53:48;;;;;;;0.50;0.50;;;23.50;76.60;;;;;;5009136;28;20045;-77
2023/08/19 00:56:14;;;;;;;0.52;0.52;;;23.50;76.60;;;;;;4993765;28;20042;-78
2023/08/19 00:58:39;;;;;;;0.60;0.60;;;23.50;76.70;;;;;;4993772;28;20037;-80
2023/08/19 01:01:05;;;;;;;0.60;0.60;;;23.50;76.70;;;;;;5026580;28;20033;-78
2023/08/19 01:03:30;;;;;;;0.68;0.68;;;23.40;76.60;;;;;;5027381;28;20056;-78
2023/08/19 01:06:10;;;;;;;1.50;0.60;;;23.40;76.70;;;;;;5028907;28;20128;-78
2023/08/19 01:09:00;;;;;;;0.55;0.55;;;23.40;76.60;;;;;;5005550;28;20042;-78
2023/08/19 01:11:45;;;;;;;0.55;0.55;;;23.40;76.70;;;;;;5010831;28;20033;-78
2023/08/19 01:14:32;;;;;;;0.60;0.60;;;23.40;76.70;;;;;;5023620;28;20144;-78
2023/08/19 01:16:57;;;;;;;0.70;0.70;;;23.50;76.80;;;;;;5026605;28;20037;-78
2023/08/19 01:19:24;;;;;;;0.63;0.63;;;23.40;76.70;;;;;;4994200;28;20052;-78
2023/08/19 01:21:52;;;;;;;0.70;0.70;;;23.40;77.50;;;;;;5011957;28;20542;-78
2023/08/19 01:24:20;;;;;;;0.50;0.50;;;23.40;76.80;;;;;;5029170;28;20049;-78
2023/08/19 01:26:45;;;;;;;0.60;0.60;;;23.40;76.70;;;;;;5025267;28;20033;-78
2023/08/19 01:29:11;;;;;;;0.70;0.70;;;23.50;76.80;;;;;;5027716;28;20045;-78
2023/08/19 01:31:36;;;;;;;0.60;0.60;;;23.40;76.70;;;;;;5009021;28;20040;-78
2023/08/19 01:34:02;;;;;;;0.60;0.60;;;23.40;76.70;;;;;;4994528;28;20491;-78
2023/08/19 01:36:32;;;;;;;0.95;0.80;;;23.40;76.70;;;;;;5010625;28;20107;-78
2023/08/19 01:39:06;;;;;;;0.73;0.73;;;23.40;76.70;;;;;;5010942;28;20070;-78
2023/08/19 01:41:32;;;;;;;0.60;0.60;;;23.40;76.60;;;;;;5025939;28;20061;-78
2023/08/19 01:43:58;;;;;;;0.68;0.68;;;23.40;76.70;;;;;;4992748;28;20566;-78
2023/08/19 01:46:24;;;;;;;1.38;0.52;;;23.40;76.70;;;;;;5026543;28;20045;-78
2023/08/19 01:48:50;;;;;;;0.70;0.70;;;23.40;76.70;;;;;;5023255;28;20403;-78
2023/08/19 01:51:15;;;;;;;0.90;0.90;;;23.40;77.50;;;;;;5029576;28;20042;-78
2023/08/19 01:53:41;;;;;;;0.80;0.80;;;23.40;77.50;;;;;;5007925;28;20045;-78
2023/08/19 01:56:06;;;;;;;0.65;0.65;;;23.40;76.70;;;;;;5023070;28;20102;-78
2023/08/19 01:58:32;;;;;;;0.57;0.57;;;23.40;76.70;;;;;;5019815;28;20555;-78
2023/08/19 02:00:57;;;;;;;0.60;0.60;;;23.40;76.70;;;;;;5025241;28;20065;-78
2023/08/19 02:03:23;;;;;;;0.50;0.50;;;23.40;76.70;;;;;;5027994;28;20037;-78
2023/08/19 02:05:48;;;;;;;0.40;0.40;;;23.40;76.90;;;;;;5026914;28;20049;-78
2023/08/19 02:08:14;;;;;;;0.70;0.70;;;23.40;76.70;;;;;;5023814;28;20029;-78
2023/08/19 02:10:42;;;;;;;0.50;0.50;;;23.40;76.70;;;;;;5026667;28;20399;-78
2023/08/19 02:13:08;;;;;;;0.43;0.43;;;23.40;76.90;;;;;;5026116;28;20139;-78
2023/08/19 02:15:33;;;;;;;0.47;0.47;;;23.40;76.90;;;;;;4989322;28;20132;-78
2023/08/19 02:17:59;;;;;;;0.70;0.70;;;23.40;77.60;;;;;;5027991;28;20499;-78
2023/08/19 02:20:24;;;;;;;0.50;0.50;;;23.40;76.70;;;;;;5025469;28;20107;-78
2023/08/19 02:22:50;;;;;;;1.02;0.60;;;23.40;76.70;;;;;;5051342;28;20127;-78
2023/08/19 02:25:16;;;;;;;0.63;0.63;;;23.40;77.10;;;;;;5025565;28;20057;-78
2023/08/19 02:27:42;;;;;;;0.45;0.45;;;23.40;77.20;;;;;;5008797;28;20050;-78
2023/08/19 02:30:10;;;;;;;0.73;0.73;;;23.40;77.20;;;;;;5028091;28;20124;-78
2023/08/19 02:32:35;;;;;;;0.43;0.43;;;23.40;77.20;;;;;;5009615;28;20495;-78
2023/08/19 02:35:01;;;;;;;0.50;0.50;;;23.40;77.10;;;;;;5024611;28;20048;-78
2023/08/19 02:37:27;;;;;;;0.63;0.63;;;23.40;77.10;;;;;;5024762;28;20047;-78
2023/08/19 02:39:52;;;;;;;0.63;0.63;;;23.40;77.10;;;;;;5024614;28;20454;-78
2023/08/19 02:42:18;;;;;;;0.50;0.50;;;23.40;77.10;;;;;;5009596;28;20042;-78
2023/08/19 02:44:43;;;;;;;0.45;0.45;;;23.40;77.00;;;;;;5024458;28;20049;-78
2023/08/19 02:47:09;;;;;;;0.50;0.50;;;23.40;77.10;;;;;;5024886;28;20102;-78
2023/08/19 02:49:36;;;;;;;0.40;0.40;;;23.40;77.00;;;;;;5025178;28;20049;-78
2023/08/19 02:52:02;;;;;;;0.55;0.55;;;23.40;77.00;;;;;;5026086;28;20041;-78
2023/08/19 02:54:28;;;;;;;0.60;0.60;;;23.40;77.30;;;;;;5025796;28;20037;-78
2023/08/19 02:56:53;;;;;;;0.60;0.60;;;23.40;77.30;;;;;;5007482;28;20176;-79
2023/08/19 02:59:19;;;;;;;0.40;0.40;;;23.40;77.20;;;;;;5002735;28;20424;-78
2023/08/19 03:01:44;;;;;;;0.93;0.55;;;23.40;77.30;;;;;;5008779;28;20042;-78
2023/08/19 03:04:10;;;;;;;0.60;0.60;;;23.40;77.30;;;;;;5008087;28;20127;-78
2023/08/19 03:06:35;;;;;;;0.80;0.60;;;23.40;77.20;;;;;;5025960;28;20128;-78
2023/08/19 03:09:01;;;;;;;0.50;0.50;;;23.30;77.20;;;;;;5007401;28;20045;-78
2023/08/19 03:11:27;;;;;;;0.60;0.60;;;23.40;77.30;;;;;;4990782;28;20050;-78
2023/08/19 03:13:52;;;;;;;0.57;0.57;;;23.40;77.30;;;;;;5006030;28;20588;-78
2023/08/19 03:16:18;;;;;;;0.75;0.75;;;23.40;77.30;;;;;;5023902;28;20080;-78
2023/08/19 03:18:43;;;;;;;0.50;0.50;;;23.40;78.10;;;;;;5022151;28;20129;-78
2023/08/19 03:21:09;;;;;;;0.80;0.80;;;23.40;77.30;;;;;;5005276;28;20196;-78
2023/08/19 03:23:35;;;;;;;0.60;0.52;;;23.30;77.10;;;;;;5019091;28;20037;-78
2023/08/19 03:26:00;;;;;;;0.60;0.60;;;23.30;77.10;;;;;;5007213;28;20494;-78
2023/08/19 03:28:26;;;;;;;0.60;0.60;;;23.30;77.90;;;;;;5023768;28;20033;-78
2023/08/19 03:30:51;;;;;;;0.40;0.40;;;23.30;77.10;;;;;;4990309;28;20047;-78
2023/08/19 03:33:17;;;;;;;0.65;0.55;;;23.30;77.10;;;;;;5026681;28;20488;-78
2023/08/19 03:35:43;;;;;;;0.60;0.60;;;23.40;77.20;;;;;;5022066;28;20037;-78
2023/08/19 03:38:08;;;;;;;0.60;0.60;;;23.30;77.00;;;;;;5025377;28;20039;-78
2023/08/19 03:40:34;;;;;;;0.68;0.65;;;23.40;77.10;;;;;;5004445;28;20046;-78
2023/08/19 03:42:59;;;;;;;0.50;0.50;;;23.30;77.10;;;;;;5022125;28;20883;-78
2023/08/19 03:45:25;;;;;;;0.60;0.60;;;23.30;77.10;;;;;;5005503;28;20415;-78
2023/08/19 03:47:50;;;;;;;0.60;0.60;;;23.30;77.10;;;;;;5005457;28;20041;-78
2023/08/19 03:50:16;;;;;;;0.50;0.50;;;23.30;77.10;;;;;;5022295;28;20067;-78
2023/08/19 03:52:41;;;;;;;0.95;0.50;;;23.30;77.10;;;;;;5023454;28;20076;-78
2023/08/19 03:55:07;;;;;;;0.70;0.70;;;23.30;77.10;;;;;;5006256;28;20032;-78
2023/08/19 03:57:33;;;;;;;0.82;0.82;;;23.30;77.00;;;;;;5024040;28;20171;-78
2023/08/19 03:59:58;;;;;;;0.50;0.50;;;23.30;77.00;;;;;;5024657;28;20053;-78
2023/08/19 04:02:24;;;;;;;0.43;0.40;;;23.30;77.10;;;;;;5022851;28;20046;-77
2023/08/19 04:05:00;;;;;;;0.90;0.75;;;23.30;77.00;;;;;;5023690;28;20026;-78
2023/08/19 04:07:26;;;;;;;0.50;0.40;;;23.30;76.90;;;;;;5023909;28;20049;-78
2023/08/19 04:09:55;;;;;;;0.60;0.60;;;23.30;76.90;;;;;;5020828;28;20434;-78
2023/08/19 04:12:24;;;;;;;0.60;0.60;;;23.30;76.70;;;;;;5007452;28;20041;-78
2023/08/19 04:14:50;;;;;;;0.50;0.50;;;23.30;76.90;;;;;;5020887;28;20053;-78
2023/08/19 04:17:16;;;;;;;1.55;0.35;;;23.30;76.90;;;;;;5025242;28;20136;-78
2023/08/19 04:19:42;;;;;;;1.17;0.57;;;23.30;76.80;;;;;;5006022;28;20536;-79
2023/08/19 04:22:08;;;;;;;0.47;0.47;;;23.30;76.60;;;;;;5005793;28;20542;-79
2023/08/19 04:24:33;;;;;;;0.50;0.50;;;23.30;76.60;;;;;;5023677;28;20129;-79
2023/08/19 04:27:02;;;;;;;0.60;0.60;;;23.30;76.70;;;;;;5025345;28;20081;-79
2023/08/19 04:29:28;;;;;;;0.85;0.60;;;23.30;76.80;;;;;;5006337;28;20029;-79
2023/08/19 04:31:54;;;;;;;0.77;0.65;;;23.30;76.70;;;;;;5021721;28;20402;-78
2023/08/19 04:34:20;;;;;;;0.63;0.63;;;23.30;76.80;;;;;;5008677;28;20132;-79
2023/08/19 04:36:46;;;;;;;0.50;0.50;;;23.30;76.70;;;;;;5023601;28;20423;-79
2023/08/19 04:39:12;;;;;;;0.38;0.38;;;23.30;76.60;;;;;;5023567;28;20568;-78
2023/08/19 04:41:37;;;;;;;0.40;0.40;;;23.30;77.40;;;;;;5007137;28;20457;-79
2023/08/19 04:44:04;;;;;;;0.63;0.63;;;23.30;76.60;;;;;;5005033;28;20131;-79
2023/08/19 04:46:31;;;;;;;0.55;0.55;;;23.30;76.70;;;;;;5024689;28;20538;-79
2023/08/19 04:48:56;;;;;;;0.70;0.65;;;23.30;76.60;;;;;;5022837;28;20053;-79
2023/08/19 04:51:22;;;;;;;0.50;0.40;;;23.30;76.60;;;;;;5025933;28;20045;-79
2023/08/19 04:53:47;;;;;;;0.88;0.50;;;23.30;76.50;;;;;;5023406;28;20072;-79
2023/08/19 04:56:13;;;;;;;1.08;0.90;;;23.30;76.40;;;;;;5021651;28;20037;-79
2023/08/19 04:58:39;;;;;;;0.43;0.43;;;23.30;76.50;;;;;;5007317;28;20392;-79
2023/08/19 05:01:05;;;;;;;0.60;0.60;;;23.30;76.40;;;;;;5021377;28;20030;-79
2023/08/19 05:03:31;;;;;;;0.55;0.55;;;23.30;76.50;;;;;;5024210;28;20038;-79
2023/08/19 05:05:56;;;;;;;0.68;0.52;;;23.20;76.50;;;;;;5023800;28;20038;-79
2023/08/19 05:08:22;;;;;;;0.50;0.50;;;23.20;76.40;;;;;;5019604;28;20497;-79
2023/08/19 05:10:48;;;;;;;0.60;0.55;;;23.30;76.50;;;;;;5022444;28;20037;-79
2023/08/19 05:13:13;;;;;;;0.95;0.63;;;23.20;76.40;;;;;;5024329;28;20120;-79
2023/08/19 05:15:39;;;;;;;0.70;0.70;;;23.20;76.50;;;;;;5008165;28;20038;-79
2023/08/19 05:18:05;;;;;;;1.08;0.57;;;23.20;76.50;;;;;;5024641;28;20037;-78
2023/08/19 05:20:30;;;;;;;0.45;0.43;;;23.30;76.40;;;;;;5025873;28;20050;-78
2023/08/19 05:22:56;;;;;;;0.52;0.40;;;23.20;76.30;;;;;;5022328;28;20092;-79
2023/08/19 05:25:21;;;;;;;0.50;0.40;;;23.20;76.40;;;;;;5021811;28;20068;-79
2023/08/19 05:27:47;;;;;;;1.17;0.50;;;23.30;76.40;;;;;;5004530;28;20041;-79
2023/08/19 05:30:12;;;;;;;0.75;0.70;;;23.20;76.40;;;;;;5025411;28;20056;-79
2023/08/19 05:32:38;;;;;;;0.85;0.68;;;23.20;76.40;;;;;;5022302;28;20038;-79
2023/08/19 05:35:04;;;;;;;0.52;0.50;;;23.20;76.30;;;;;;5018930;28;20557;-79
2023/08/19 05:37:30;;;;;;;0.50;0.35;;;23.20;76.20;;;;;;5024856;28;20037;-79
2023/08/19 05:39:56;;;;;;;0.50;0.40;;;23.20;76.30;;;;;;5027347;28;20069;-79
2023/08/19 05:42:21;;;;;;;0.77;0.55;;;23.30;76.30;;;;;;5010323;28;20049;-79
2023/08/19 05:44:47;;;;;;;0.52;0.43;;;23.20;76.20;;;;;;5025110;28;20041;-79
2023/08/19 05:47:14;;;;;;;0.60;0.60;;;23.20;77.00;;;;;;5027836;28;20045;-79
2023/08/19 05:49:39;;;;;;;0.52;0.52;;;23.20;76.20;;;;;;5027395;28;20046;-79
2023/08/19 05:52:05;;;;;;;0.95;0.68;;;23.20;76.20;;;;;;5026710;28;20442;-79
2023/08/19 05:54:30;;;;;;;0.50;0.50;;;23.20;76.20;;;;;;5027786;28;20040;-79
2023/08/19 05:56:56;;;;;;;0.52;0.50;;;23.20;76.10;;;;;;5025339;28;20041;-79
2023/08/19 05:59:21;;;;;;;0.70;0.60;;;23.20;76.20;;;;;;5006137;28;20045;-79
2023/08/19 06:01:47;;;;;;;0.60;0.45;;;23.20;76.10;;;;;;5026040;28;20033;-78
2023/08/19 06:04:14;;;;;;;0.85;0.85;;;23.20;76.10;;;;;;4990885;28;20132;-79
2023/08/19 06:06:40;;;;;;;0.52;0.50;;;23.20;76.20;;;;;;5024224;28;20053;-78
2023/08/19 06:09:05;;;;;;;0.50;0.50;;;23.20;76.10;;;;;;5028086;28;20053;-78
2023/08/19 06:11:31;;;;;;;0.60;0.43;;;23.20;76.10;;;;;;5024011;28;22088;-78
2023/08/19 06:13:58;;;;;;;0.70;0.60;;;23.20;76.10;;;;;;5024817;28;20049;-79
2023/08/19 06:16:23;;;;;;;0.50;0.50;;;23.20;76.10;;;;;;5025684;28;20050;-79
2023/08/19 06:18:50;;;;;;;0.60;0.60;;;23.20;76.10;;;;;;4990606;28;20042;-78
2023/08/19 06:21:17;;;;;;;1.58;0.65;;;23.20;76.20;;;;;;5027532;28;20731;-79
2023/08/19 06:23:42;;;;;;;0.77;0.65;;;23.20;76.20;;;;;;5009511;28;20087;-79
2023/08/19 06:26:08;;;;;;;0.60;0.40;;;23.20;76.10;;;;;;5007748;28;20041;-79
2023/08/19 06:28:34;;;;;;;0.65;0.50;;;23.20;76.10;;;;;;5024463;28;20116;-78
2023/08/19 06:31:00;;;;;;;0.73;0.65;;;23.20;76.10;;;;;;5024611;28;20038;-78
2023/08/19 06:33:26;;;;;;;0.70;0.57;;;23.20;76.10;;;;;;5027276;28;20581;-79
2023/08/19 06:35:52;;;;;;;0.88;0.70;;;23.20;76.10;;;;;;5053583;28;20081;-79
2023/08/19 06:38:23;;;;;;;1.02;0.73;;;23.20;76.10;;;;;;5008304;28;20135;-79
2023/08/19 06:41:02;;;;;;;0.80;0.60;;;23.20;76.00;;;;;;5040525;28;20080;-79
2023/08/19 06:43:28;;;;;;;0.80;0.70;;;23.20;76.10;;;;;;5033619;28;20052;-79
2023/08/19 06:45:56;;;;;;;1.08;0.68;;;23.20;76.10;;;;;;4991024;28;20033;-78
2023/08/19 06:48:25;;;;;;;0.93;0.70;;;23.20;76.80;;;;;;5024234;28;20044;-79
2023/08/19 06:50:52;;;;;;;0.60;0.50;;;23.20;76.10;;;;;;5023093;28;20037;-79
2023/08/19 06:53:18;;;;;;;0.50;0.50;;;23.20;76.10;;;;;;5023954;28;20039;-79
2023/08/19 06:55:54;;;;;;;0.40;0.40;;;23.30;75.90;;;;;;5014167;28;20068;-79
2023/08/19 06:58:25;;;;;;;0.50;0.45;;;23.20;76.10;;;;;;5008385;28;20280;-78
2023/08/19 07:00:52;;;;;;;0.70;0.70;;;23.20;76.00;;;;;;4990874;28;20128;-79
2023/08/19 07:03:18;;;;;;;1.50;0.60;;;23.20;75.90;;;;;;5008983;28;20099;-79
2023/08/19 07:05:43;;;;;;;0.95;0.50;;;23.20;75.90;;;;;;5024833;28;20160;-79
2023/08/19 07:08:09;;;;;;;0.73;0.60;;;23.20;75.80;;;;;;5008242;28;20117;-78
2023/08/19 07:10:36;;;;;;;1.00;0.90;;;23.20;75.90;;;;;;5009553;28;20048;-79
2023/08/19 07:13:02;;;;;;;0.95;0.90;;;23.20;75.90;;;;;;5025359;28;20602;-78
2023/08/19 07:15:28;;;;;;;0.55;0.47;;;23.30;75.90;;;;;;4992348;28;20050;-77
2023/08/19 07:17:55;;;;;;;0.80;0.70;;;23.30;75.80;;;;;;5000765;28;20042;-79
2023/08/19 07:20:21;;;;;;;0.73;0.73;;;23.30;76.00;;;;;;5008088;28;20045;-78
2023/08/19 07:22:47;;;;;;;0.60;0.60;;;23.30;75.80;;;;;;5024706;28;20037;-79
2023/08/19 07:25:13;;;;;;;2.10;0.50;;;23.30;75.90;;;;;;5024460;28;20045;-79
2023/08/19 07:27:39;;;;;;;0.73;0.40;;;23.20;75.80;;;;;;4991803;28;20041;-77
2023/08/19 07:30:05;;;;;;;0.30;0.30;;;23.30;76.00;;;;;;5023428;28;20470;-78
2023/08/19 07:32:33;;;;;;;0.75;0.70;;;23.30;75.80;;;;;;5020133;28;20033;-77
2023/08/19 07:34:59;;;;;;;0.98;0.70;;;23.30;76.10;;;;;;5016109;28;20051;-77
2023/08/19 07:37:25;;;;;;;0.50;0.50;;;23.30;76.30;;;;;;5024173;28;20067;-77
2023/08/19 07:39:53;;;;;;;1.33;0.70;;;23.30;76.70;;;;;;5025416;28;20064;-77
2023/08/19 07:42:19;;;;;;;0.70;0.60;;;23.30;76.10;;;;;;5007255;28;20065;-77
2023/08/19 07:44:44;;;;;;;0.60;0.57;;;23.30;76.20;;;;;;5023250;28;20049;-77
2023/08/19 07:47:10;;;;;;;0.38;0.38;;;23.30;76.10;;;;;;5022771;28;20520;-78
2023/08/19 07:49:35;;;;;;;0.63;0.55;;;23.30;76.30;;;;;;5008922;28;20038;-77
2023/08/19 07:52:01;;;;;;;0.95;0.57;;;23.30;76.30;;;;;;5023441;28;20045;-77
2023/08/19 07:54:26;;;;;;;1.02;0.73;;;23.30;76.30;;;;;;5026473;28;20416;-77
2023/08/19 07:56:53;;;;;;;1.58;0.40;;;23.30;77.10;;;;;;5025110;28;20090;-77
2023/08/19 07:59:21;;;;;;;0.90;0.60;;;23.30;76.50;;;;;;5024298;28;20053;-77
2023/08/19 08:01:46;;;;;;;0.40;0.40;;;23.30;76.60;;;;;;5025677;28;20061;-77
2023/08/19 08:04:12;;;;;;;0.88;0.70;;;23.30;76.60;;;;;;5024407;28;20415;-78
2023/08/19 08:06:37;;;;;;;0.60;0.57;;;23.30;76.70;;;;;;5008438;28;20045;-77
2023/08/19 08:09:03;;;;;;;0.65;0.57;;;23.20;76.50;;;;;;5024109;28;20088;-77
2023/08/19 08:11:29;;;;;;;0.60;0.60;;;23.30;76.50;;;;;;5024485;28;20037;-77
2023/08/19 08:13:55;;;;;;;0.70;0.40;;;23.30;76.50;;;;;;5022680;28;20040;-78
2023/08/19 08:16:21;;;;;;;2.20;0.60;;;23.30;76.50;;;;;;5023945;28;20561;-78
2023/08/19 08:18:46;;;;;;;1.08;0.70;;;23.30;76.40;;;;;;5023854;28;20041;-78
2023/08/19 08:21:13;;;;;;;0.90;0.60;;;23.30;76.40;;;;;;5024151;28;20506;-78
2023/08/19 08:23:39;;;;;;;0.57;0.57;;;23.30;76.40;;;;;;5023393;28;20044;-77
2023/08/19 08:26:05;;;;;;;0.50;0.40;;;23.30;76.40;;;;;;5023769;28;20407;-78
2023/08/19 08:28:30;;;;;;;0.47;0.43;;;23.30;76.30;;;;;;4991109;28;20036;-77
2023/08/19 08:30:56;;;;;;;1.05;0.50;;;23.30;76.30;;;;;;5023562;28;20036;-77
2023/08/19 08:33:22;;;;;;;0.85;0.50;;;23.30;76.30;;;;;;5024335;28;20038;-77
2023/08/19 08:35:48;;;;;;;2.58;0.70;;;23.30;76.30;;;;;;5024764;28;20759;-77
2023/08/19 08:38:13;;;;;;;1.13;0.73;;;23.30;76.30;;;;;;5007727;28;20045;-78
2023/08/19 08:40:39;;;;;;;1.05;0.70;;;23.30;76.30;;;;;;5022751;28;20038;-77
2023/08/19 08:43:05;;;;;;;1.40;0.60;;;23.40;76.20;;;;;;5007443;28;20045;-78
2023/08/19 08:45:31;;;;;;;0.88;0.60;;;23.40;77.10;;;;;;4991542;28;20052;-77
2023/08/19 08:47:57;;;;;;;0.70;0.70;;;23.40;75.90;;;;;;5021068;28;20533;-78
2023/08/19 08:50:22;;;;;;;0.65;0.50;;;23.40;75.90;;;;;;5007990;28;20049;-78
2023/08/19 08:52:50;;;;;;;1.52;0.65;;;23.40;75.90;;;;;;5008159;28;20571;-78
2023/08/19 08:55:15;;;;;;;0.30;0.30;;;23.40;75.90;;;;;;5024270;28;20054;-77
2023/08/19 08:57:41;;;;;;;1.50;0.70;;;23.40;75.90;;;;;;4993800;28;20109;-77
2023/08/19 09:00:07;;;;;;;1.25;0.52;;;23.40;76.10;;;;;;5025037;28;20073;-78
2023/08/19 09:02:33;;;;;;;1.10;0.63;;;23.40;75.90;;;;;;5024443;28;20396;-78
2023/08/19 09:04:58;;;;;;;0.73;0.50;;;23.40;75.70;;;;;;4987825;28;20052;-77
2023/08/19 09:07:25;;;;;;;0.75;0.52;;;23.40;75.70;;;;;;4990440;28;20054;-78
2023/08/19 09:09:51;;;;;;;1.48;0.73;;;23.40;75.70;;;;;;5024832;28;20384;-77
2023/08/19 09:12:16;;;;;;;1.02;0.73;;;23.40;75.70;;;;;;5027960;28;20044;-78
2023/08/19 09:14:43;;;;;;;0.63;0.63;;;23.40;75.70;;;;;;4991830;28;20511;-78
2023/08/19 09:17:12;;;;;;;1.23;0.57;;;23.40;75.70;;;;;;5022808;28;20034;-77
2023/08/19 09:19:37;;;;;;;1.10;0.43;;;23.40;75.60;;;;;;5026811;28;20041;-77
2023/08/19 09:22:29;;;;;;;0.98;0.60;;;23.50;75.60;;;;;;5025962;28;20088;-77
2023/08/19 09:24:56;;;;;;;0.73;0.60;;;23.50;75.60;;;;;;5025654;28;20029;-78
2023/08/19 09:27:31;;;;;;;0.57;0.57;;;23.40;75.50;;;;;;5029340;28;20041;-78
2023/08/19 09:30:00;;;;;;;0.50;0.50;;;23.40;75.50;;;;;;5025211;28;20056;-78
2023/08/19 09:32:33;;;;;;;0.85;0.70;;;23.40;75.50;;;;;;5010278;28;20088;-77
2023/08/19 09:35:06;;;;;;;0.60;0.40;;;23.50;75.60;;;;;;5026234;28;20045;-78
2023/08/19 09:37:32;;;;;;;0.85;0.60;;;23.40;75.60;;;;;;5026963;28;20295;-78
2023/08/19 09:39:57;;;;;;;0.68;0.50;;;23.40;75.50;;;;;;5026842;28;20042;-78
2023/08/19 09:42:23;;;;;;;0.75;0.50;;;23.40;75.50;;;;;;5028381;28;20048;-77
2023/08/19 09:44:49;;;;;;;1.15;0.50;;;23.50;75.60;;;;;;5011292;28;20049;-77
2023/08/19 09:47:14;;;;;;;1.98;0.95;;;23.40;75.50;;;;;;5027583;28;20052;-77
2023/08/19 09:49:40;;;;;;;0.75;0.50;;;23.50;75.50;;;;;;5026593;28;20035;-77
2023/08/19 09:52:05;;;;;;;0.38;0.32;;;23.50;76.30;;;;;;5026962;28;20514;-77
2023/08/19 09:54:31;;;;;;;0.98;0.60;;;23.50;75.40;;;;;;5025040;28;20055;-77
2023/08/19 09:56:58;;;;;;;0.90;0.70;;;23.50;75.40;;;;;;5027161;28;20029;-77
2023/08/19 09:59:24;;;;;;;0.50;0.45;;;23.50;75.40;;;;;;5026888;28;20110;-77
2023/08/19 10:01:51;;;;;;;1.70;0.70;;;23.50;75.40;;;;;;5027300;28;20107;-77
2023/08/19 10:04:17;;;;;;;0.70;0.60;;;23.50;75.40;;;;;;5020850;28;20053;-78
2023/08/19 10:06:45;;;;;;;0.70;0.50;;;23.50;75.30;;;;;;4994379;28;20042;-78
2023/08/19 10:09:11;;;;;;;2.05;0.75;;;23.50;75.20;;;;;;5027733;28;20030;-77
2023/08/19 10:11:37;;;;;;;0.40;0.40;;;23.50;75.10;;;;;;5027364;28;20052;-78
2023/08/19 10:14:03;;;;;;;0.82;0.50;;;23.50;75.10;;;;;;5008968;28;20042;-77
2023/08/19 10:16:31;;;;;;;0.77;0.40;;;23.60;75.10;;;;;;5024717;28;20426;-77
2023/08/19 10:18:56;;;;;;;0.77;0.50;;;23.60;75.00;;;;;;5024175;28;20052;-78
2023/08/19 10:21:22;;;;;;;0.77;0.43;;;23.60;75.00;;;;;;5026046;28;20034;-77
2023/08/19 10:23:48;;;;;;;0.80;0.40;;;23.60;74.90;;;;;;5008990;28;20080;-77
2023/08/19 10:26:15;;;;;;;0.65;0.50;;;23.60;75.70;;;;;;5009212;28;20041;-77
2023/08/19 10:28:40;;;;;;;0.60;0.50;;;23.60;75.00;;;;;;5026827;28;20116;-77
2023/08/19 10:31:10;;;;;;;0.95;0.40;;;23.60;74.80;;;;;;5026005;28;20607;-78
2023/08/19 10:33:42;;;;;;;1.08;0.50;;;23.60;74.80;;;;;;5027251;28;20092;-77
2023/08/19 10:36:08;;;;;;;0.93;0.60;;;23.60;74.80;;;;;;5025404;28;20042;-77
2023/08/19 10:38:53;;;;;;;0.80;0.60;;;23.60;74.80;;;;;;5022797;28;20044;-77
2023/08/19 10:41:25;;;;;;;0.73;0.50;;;23.60;74.80;;;;;;5023889;28;20045;-78
2023/08/19 10:43:58;;;;;;;0.50;0.50;;;23.60;74.80;;;;;;5026333;28;20041;-77
2023/08/19 10:46:37;;;;;;;1.05;0.60;;;23.60;74.80;;;;;;5025139;28;20049;-77
2023/08/19 10:49:07;;;;;;;0.88;0.60;;;23.60;74.80;;;;;;5028445;28;20445;-78
2023/08/19 10:52:03;;;;;;;0.73;0.52;;;23.60;74.80;;;;;;5026125;28;20068;-77
2023/08/19 10:54:42;;;;;;;0.60;0.50;;;23.60;74.80;;;;;;5025780;28;20040;-78
2023/08/19 10:57:24;;;;;;;0.63;0.63;;;23.60;74.80;;;;;;5025832;28;20140;-78
2023/08/19 10:59:59;;;;;;;0.77;0.47;;;23.60;74.90;;;;;;5025278;28;20124;-77
2023/08/19 11:02:29;;;;;;;0.75;0.52;;;23.60;74.80;;;;;;5007468;28;20060;-78
2023/08/19 11:04:54;;;;;;;0.70;0.40;;;23.60;75.60;;;;;;5025110;28;20044;-78
2023/08/19 11:07:20;;;;;;;1.00;0.50;;;23.60;74.80;;;;;;5027950;28;20053;-77
2023/08/19 11:09:47;;;;;;;0.50;0.30;;;23.60;75.50;;;;;;5026209;28;20477;-78
2023/08/19 11:12:16;;;;;;;0.30;0.30;;;23.60;74.80;;;;;;5025669;28;20037;-78
2023/08/19 11:14:47;;;;;;;0.52;0.40;;;23.60;74.70;;;;;;5023697;28;20041;-77
2023/08/19 11:17:13;;;;;;;2.13;0.40;;;23.60;74.70;;;;;;5022076;28;20041;-78
2023/08/19 11:19:38;;;;;;;0.45;0.30;;;23.60;74.70;;;;;;5008415;28;20045;-78
2023/08/19 11:22:04;;;;;;;0.75;0.50;;;23.60;74.70;;;;;;5024433;28;20478;-78
2023/08/19 11:24:30;;;;;;;0.70;0.47;;;23.70;74.70;;;;;;5026363;28;20060;-78
2023/08/19 11:26:56;;;;;;;0.47;0.40;;;23.70;74.60;;;;;;5024603;28;20070;-77
2023/08/19 11:29:22;;;;;;;0.30;0.30;;;23.70;74.60;;;;;;5023612;28;20049;-77
2023/08/19 11:31:47;;;;;;;0.43;0.30;;;23.70;74.60;;;;;;5022001;28;20032;-78
2023/08/19 11:34:13;;;;;;;0.55;0.40;;;23.70;74.60;;;;;;5008385;28;20042;-78
2023/08/19 11:36:39;;;;;;;0.63;0.50;;;23.70;74.60;;;;;;5024653;28;20041;-77
2023/08/19 11:39:05;;;;;;;0.70;0.38;;;23.70;74.50;;;;;;5025349;28;20049;-78
2023/08/19 11:41:31;;;;;;;0.50;0.40;;;23.70;74.60;;;;;;5024440;28;20120;-78
2023/08/19 11:43:58;;;;;;;0.30;0.30;;;23.70;74.50;;;;;;5024491;28;20113;-78
2023/08/19 11:46:30;;;;;;;0.22;0.22;;;23.70;74.60;;;;;;5024038;28;20438;-78
2023/08/19 11:49:01;;;;;;;0.40;0.40;;;23.70;74.50;;;;;;5002050;28;20129;-78
2023/08/19 11:51:27;;;;;;;0.40;0.40;;;23.70;74.60;;;;;;5037913;28;20041;-78
2023/08/19 11:53:53;;;;;;;0.50;0.40;;;23.70;74.50;;;;;;5026093;28;20045;-78
2023/08/19 11:56:20;;;;;;;0.65;0.30;;;23.70;74.50;;;;;;5026176;28;20038;-78
2023/08/19 11:58:52;;;;;;;0.32;0.32;;;23.70;74.50;;;;;;5024830;28;20495;-77
2023/08/19 12:01:18;;;;;;;0.55;0.40;;;23.70;74.50;;;;;;4990863;28;20053;-77
2023/08/19 12:03:45;;;;;;;0.50;0.50;;;23.70;74.50;;;;;;5023931;28;20041;-78
2023/08/19 12:06:10;;;;;;;0.40;0.40;;;23.70;74.50;;;;;;5025142;28;20080;-78
2023/08/19 12:08:38;;;;;;;0.40;0.30;;;23.70;74.50;;;;;;5024411;28;20077;-77
2023/08/19 12:11:04;;;;;;;0.40;0.38;;;23.70;74.50;;;;;;5023389;28;20029;-77
2023/08/19 12:13:30;;;;;;;0.47;0.47;;;23.70;75.30;;;;;;5025692;28;20467;-77
2023/08/19 12:15:55;;;;;;;0.55;0.40;;;23.70;74.40;;;;;;5024541;28;20037;-77
2023/08/19 12:18:21;;;;;;;0.57;0.57;;;23.80;74.40;;;;;;5025800;28;20044;-77
2023/08/19 12:20:48;;;;;;;0.30;0.30;;;23.80;74.60;;;;;;5024255;28;20053;-77
2023/08/19 12:23:14;;;;;;;0.60;0.57;;;23.80;74.40;;;;;;5024738;28;20049;-77
2023/08/19 12:25:48;;;;;;;0.65;0.40;;;23.80;74.40;;;;;;5026095;28;20045;-77
2023/08/19 12:28:14;;;;;;;0.40;0.30;;;23.80;74.40;;;;;;5023786;28;20057;-77
2023/08/19 12:30:39;;;;;;;0.40;0.40;;;23.80;74.40;;;;;;5025299;28;20503;-77
2023/08/19 12:33:05;;;;;;;0.28;0.28;;;23.80;74.40;;;;;;5024208;28;20061;-77
2023/08/19 12:35:30;;;;;;;0.93;0.60;;;23.80;75.20;;;;;;5024873;28;20042;-77
2023/08/19 12:37:56;;;;;;;0.20;0.20;;;23.80;74.40;;;;;;5023803;28;20044;-77
2023/08/19 12:40:22;;;;;;;0.30;0.28;;;23.80;74.50;;;;;;5024535;28;20042;-77
2023/08/19 12:42:47;;;;;;;0.38;0.38;;;23.80;74.40;;;;;;5025057;28;20057;-77
2023/08/19 12:45:13;;;;;;;0.40;0.30;;;23.80;74.30;;;;;;5026048;28;20080;-77